createdAt,value
2019-02-19T00:00:48.429Z,11.27
2019-02-19T00:03:17.791Z,8.40
2019-02-19T00:05:46.968Z,10.40
2019-02-19T00:08:16.143Z,9.90
2019-02-19T00:10:45.522Z,7.63
2019-02-19T00:13:14.727Z,11.07
2019-02-19T00:15:43.957Z,9.03
2019-02-19T00:18:13.271Z,10.93
2019-02-19T00:20:42.582Z,11.37
2019-02-19T00:23:11.784Z,10.50
2019-02-19T00:25:41.058Z,9.87
2019-02-19T00:28:10.242Z,9.80
2019-02-19T00:30:39.497Z,10.07
2019-02-19T00:33:08.704Z,9.33
2019-02-19T00:35:38.050Z,13.17
2019-02-19T00:38:07.270Z,11.97
2019-02-19T00:40:36.441Z,11.40
2019-02-19T00:43:05.631Z,8.80
2019-02-19T00:45:34.897Z,9.80
2019-02-19T00:48:04.084Z,9.37
2019-02-19T00:50:33.345Z,7.90
2019-02-19T00:53:02.547Z,7.10
2019-02-19T00:55:31.751Z,10.23
2019-02-19T00:58:01.019Z,7.20
2019-02-19T01:00:30.196Z,10.03
2019-02-19T01:02:59.402Z,7.37
2019-02-19T01:05:28.605Z,6.80
2019-02-19T01:07:57.864Z,10.20
2019-02-19T01:10:27.071Z,9.97
2019-02-19T01:12:56.890Z,11.37
2019-02-19T01:15:26.117Z,10.60
2019-02-19T01:17:55.328Z,7.17
2019-02-19T01:20:24.548Z,8.10
2019-02-19T01:22:53.778Z,10.10
2019-02-19T01:25:23.014Z,9.43
2019-02-19T01:27:52.273Z,7.77
2019-02-19T01:30:21.470Z,6.87
2019-02-19T01:32:50.654Z,9.43
2019-02-19T01:35:19.926Z,10.87
2019-02-19T01:37:49.285Z,9.30
2019-02-19T01:40:18.537Z,10.83
2019-02-19T01:42:47.721Z,10.10
2019-02-19T01:45:16.984Z,10.53
2019-02-19T01:47:46.161Z,10.80
2019-02-19T01:50:15.438Z,9.60
2019-02-19T01:52:44.683Z,10.70
2019-02-19T01:55:13.846Z,10.23
2019-02-19T01:57:43.054Z,7.73
2019-02-19T02:00:12.418Z,10.50
2019-02-19T02:02:41.687Z,10.13
2019-02-19T02:05:10.978Z,8.40
2019-02-19T02:07:40.256Z,10.13
2019-02-19T02:10:09.456Z,10.27
2019-02-19T02:12:38.630Z,10.27
2019-02-19T02:15:08.289Z,12.27
2019-02-19T02:17:37.537Z,11.90
2019-02-19T02:20:07.017Z,12.93
2019-02-19T02:22:36.181Z,12.63
2019-02-19T02:25:05.399Z,11.27
2019-02-19T02:27:34.644Z,8.07
2019-02-19T02:30:03.933Z,8.07
2019-02-19T02:32:33.110Z,12.27
2019-02-19T02:35:02.398Z,11.90
2019-02-19T02:37:31.599Z,12.53
2019-02-19T02:40:00.884Z,10.80
2019-02-19T02:42:30.104Z,11.50
2019-02-19T02:44:59.351Z,11.53
2019-02-19T02:47:28.654Z,11.37
2019-02-19T02:49:57.893Z,12.63
2019-02-19T02:52:27.173Z,10.60
2019-02-19T02:54:56.430Z,9.10
2019-02-19T02:57:25.623Z,12.47
2019-02-19T02:59:54.937Z,13.40
2019-02-19T03:02:24.191Z,10.27
2019-02-19T03:04:53.655Z,11.27
2019-02-19T03:07:40.960Z,11.27
2019-02-19T03:10:10.157Z,9.63
2019-02-19T03:12:39.454Z,9.93
2019-02-19T03:15:09.140Z,8.37
2019-02-19T03:17:38.400Z,11.17
2019-02-19T03:20:07.627Z,10.33
2019-02-19T03:22:36.919Z,11.90
2019-02-19T03:25:06.163Z,11.47
2019-02-19T03:27:35.351Z,11.07
2019-02-19T03:30:04.916Z,12.30
2019-02-19T03:32:34.172Z,11.80
2019-02-19T03:35:03.466Z,11.87
2019-02-19T03:37:32.667Z,11.27
2019-02-19T03:40:01.975Z,11.63
2019-02-19T03:42:31.290Z,10.90
2019-02-19T03:45:00.698Z,11.10
2019-02-19T03:47:29.978Z,9.50
2019-02-19T03:49:59.199Z,9.10
2019-02-19T03:52:28.438Z,10.40
2019-02-19T03:54:57.658Z,11.87
2019-02-19T03:57:27.040Z,11.37
2019-02-19T03:59:56.368Z,10.77
2019-02-19T04:02:25.549Z,10.10
2019-02-19T04:04:54.728Z,11.17
2019-02-19T04:07:23.967Z,10.43
2019-02-19T04:09:53.333Z,9.73
2019-02-19T04:12:22.581Z,9.90
2019-02-19T04:14:51.778Z,9.37
2019-02-19T04:17:21.012Z,9.67
2019-02-19T04:19:50.315Z,11.60
2019-02-19T04:22:19.554Z,9.63
2019-02-19T04:24:48.824Z,11.30
2019-02-19T04:27:18.008Z,10.90
2019-02-19T04:29:47.292Z,9.90
2019-02-19T04:32:16.537Z,9.37
2019-02-19T04:34:46.201Z,10.07
2019-02-19T04:37:15.550Z,11.00
2019-02-19T04:39:44.832Z,9.53
2019-02-19T04:42:14.141Z,9.33
2019-02-19T04:44:43.429Z,10.27
2019-02-19T04:47:12.755Z,9.70
2019-02-19T04:49:42.010Z,10.33
2019-02-19T04:52:11.166Z,9.73
2019-02-19T04:54:40.416Z,9.00
2019-02-19T04:57:09.619Z,10.00
2019-02-19T04:59:39.517Z,10.17
2019-02-19T05:02:08.705Z,10.23
2019-02-19T05:04:37.937Z,10.47
2019-02-19T05:07:07.181Z,10.13
2019-02-19T05:09:36.400Z,10.83
2019-02-19T05:12:05.604Z,10.73
2019-02-19T05:14:34.900Z,10.57
2019-02-19T05:17:04.055Z,10.30
2019-02-19T05:19:33.234Z,10.70
2019-02-19T05:22:02.468Z,9.80
2019-02-19T05:24:31.609Z,10.20
2019-02-19T05:27:00.988Z,9.70
2019-02-19T05:29:30.179Z,10.17
2019-02-19T05:31:59.432Z,10.53
2019-02-19T05:34:28.570Z,9.67
2019-02-19T05:36:57.748Z,9.77
2019-02-19T05:39:27.014Z,10.53
2019-02-19T05:41:56.195Z,9.60
2019-02-19T05:44:25.453Z,9.27
2019-02-19T05:46:54.620Z,9.30
2019-02-19T05:49:23.785Z,8.97
2019-02-19T05:51:53.000Z,9.67
2019-02-19T05:54:22.284Z,8.87
2019-02-19T05:56:52.500Z,9.13
2019-02-19T05:59:21.683Z,9.90
2019-02-19T06:01:50.912Z,9.93
2019-02-19T06:04:20.080Z,9.60
2019-02-19T06:06:49.372Z,9.97
2019-02-19T06:09:18.589Z,9.33
2019-02-19T06:11:47.817Z,9.97
2019-02-19T06:14:17.033Z,9.70
2019-02-19T06:16:46.233Z,7.77
2019-02-19T06:19:15.519Z,9.27
2019-02-19T06:21:44.675Z,9.30
2019-02-19T06:24:13.961Z,9.57
2019-02-19T06:26:43.201Z,9.10
2019-02-19T06:29:12.376Z,9.67
2019-02-19T06:31:41.505Z,8.63
2019-02-19T06:34:10.769Z,8.87
2019-02-19T06:36:39.960Z,9.47
2019-02-19T06:39:09.294Z,8.57
2019-02-19T06:41:38.639Z,8.90
2019-02-19T06:44:07.848Z,9.57
2019-02-19T06:46:37.004Z,9.27
2019-02-19T06:49:06.302Z,7.97
2019-02-19T06:51:35.524Z,9.37
2019-02-19T06:54:04.705Z,8.07
2019-02-19T06:56:33.862Z,9.50
2019-02-19T06:59:03.141Z,9.60
2019-02-19T07:02:03.188Z,9.70
2019-02-19T07:04:42.443Z,8.60
2019-02-19T07:07:11.624Z,8.70
2019-02-19T07:09:40.823Z,8.93
2019-02-19T07:12:10.093Z,8.67
2019-02-19T07:14:39.337Z,8.93
2019-02-19T07:17:15.487Z,5.90
2019-02-19T07:19:39.670Z,8.40
2019-02-19T07:22:08.923Z,5.57
2019-02-19T07:24:38.158Z,8.73
2019-02-19T07:27:07.466Z,6.83
2019-02-19T07:29:36.693Z,6.20
2019-02-19T07:32:05.916Z,8.00
2019-02-19T07:34:35.241Z,9.00
2019-02-19T07:37:04.472Z,9.10
2019-02-19T07:39:33.642Z,7.73
2019-02-19T07:42:02.879Z,9.00
2019-02-19T07:44:32.290Z,9.50
2019-02-19T07:47:01.456Z,8.90
2019-02-19T07:49:30.694Z,8.27
2019-02-19T07:51:59.949Z,7.10
2019-02-19T07:54:29.155Z,8.40
2019-02-19T07:56:58.428Z,8.90
2019-02-19T07:59:27.612Z,9.13
2019-02-19T08:01:56.770Z,8.90
2019-02-19T08:04:25.970Z,8.63
2019-02-19T08:06:55.169Z,9.00
2019-02-19T08:09:24.388Z,8.83
2019-02-19T08:11:53.578Z,8.07
2019-02-19T08:14:22.753Z,9.23
2019-02-19T08:16:51.969Z,8.57
2019-02-19T08:19:21.213Z,8.80
2019-02-19T08:21:50.447Z,9.07
2019-02-19T08:24:19.606Z,6.00
2019-02-19T08:26:48.866Z,8.63
2019-02-19T08:29:18.131Z,8.63
2019-02-19T08:31:47.368Z,9.13
2019-02-19T08:34:16.664Z,8.77
2019-02-19T08:36:45.840Z,8.03
2019-02-19T08:39:15.208Z,8.50
2019-02-19T08:41:44.439Z,9.67
2019-02-19T08:44:13.589Z,8.20
2019-02-19T08:46:42.846Z,8.83
2019-02-19T08:49:12.077Z,8.63
2019-02-19T08:51:41.349Z,9.67
2019-02-19T08:54:10.587Z,9.77
2019-02-19T08:56:39.764Z,9.37
2019-02-19T08:59:08.957Z,8.80
2019-02-19T09:01:38.223Z,9.67
2019-02-19T09:04:07.465Z,9.77
2019-02-19T09:06:36.782Z,10.67
2019-02-19T09:09:06.981Z,9.00
2019-02-19T09:11:36.139Z,7.93
2019-02-19T09:14:05.333Z,9.73
2019-02-19T09:16:34.579Z,9.33
2019-02-19T09:19:03.773Z,9.03
2019-02-19T09:21:32.957Z,9.53
2019-02-19T09:24:09.223Z,7.70
2019-02-19T09:26:33.175Z,8.83
2019-02-19T09:29:02.425Z,9.67
2019-02-19T09:31:31.698Z,7.63
2019-02-19T09:34:00.896Z,8.07
2019-02-19T09:36:30.079Z,9.27
2019-02-19T09:38:59.329Z,8.83
2019-02-19T09:41:28.569Z,7.90
2019-02-19T09:43:57.784Z,8.93
2019-02-19T09:46:27.093Z,8.57
2019-02-19T09:48:56.377Z,8.13
2019-02-19T09:51:25.538Z,8.77
2019-02-19T09:53:54.920Z,7.97
2019-02-19T09:56:24.083Z,8.60
2019-02-19T09:58:53.277Z,7.33
2019-02-19T10:01:22.458Z,7.60
2019-02-19T10:03:51.666Z,7.93
2019-02-19T10:06:20.901Z,7.77
2019-02-19T10:08:50.057Z,8.17
2019-02-19T10:11:19.272Z,7.73
2019-02-19T10:13:48.475Z,7.97
2019-02-19T10:16:17.754Z,8.57
2019-02-19T10:18:46.931Z,6.90
2019-02-19T10:21:16.113Z,7.83
2019-02-19T10:23:45.259Z,7.50
2019-02-19T10:26:14.536Z,7.97
2019-02-19T10:28:43.725Z,6.50
2019-02-19T10:31:12.970Z,7.50
2019-02-19T10:33:42.153Z,6.20
2019-02-19T10:36:11.337Z,4.47
2019-02-19T10:38:40.568Z,3.70
2019-02-19T10:41:09.733Z,4.07
2019-02-19T10:43:38.880Z,5.10
2019-02-19T10:46:08.051Z,4.30
2019-02-19T10:48:37.286Z,4.77
2019-02-19T10:51:06.549Z,3.93
2019-02-19T10:53:35.813Z,4.63
2019-02-19T10:56:05.002Z,4.50
2019-02-19T10:58:34.146Z,4.70
2019-02-19T11:01:03.380Z,4.33
2019-02-19T11:03:32.644Z,4.53
2019-02-19T11:06:01.904Z,4.43
2019-02-19T11:08:31.149Z,4.37
2019-02-19T11:11:00.332Z,5.30
2019-02-19T11:13:29.489Z,5.37
2019-02-19T11:15:58.797Z,4.83
2019-02-19T11:18:28.880Z,4.97
2019-02-19T11:20:58.314Z,4.87
2019-02-19T11:23:27.628Z,5.23
2019-02-19T11:25:56.812Z,4.93
2019-02-19T11:28:25.994Z,5.23
2019-02-19T11:30:55.157Z,6.53
2019-02-19T11:33:24.431Z,6.30
2019-02-19T11:35:54.819Z,4.83
2019-02-19T11:38:24.152Z,6.03
2019-02-19T11:40:53.316Z,6.10
2019-02-19T11:43:22.567Z,6.03
2019-02-19T11:45:51.790Z,6.37
2019-02-19T11:48:21.037Z,6.40
2019-02-19T11:50:50.220Z,6.80
2019-02-19T11:53:19.405Z,6.13
2019-02-19T11:55:48.550Z,6.50
2019-02-19T11:58:17.808Z,5.07
2019-02-19T12:00:47.069Z,4.77
2019-02-19T12:03:16.288Z,5.47
2019-02-19T12:05:45.562Z,5.33
2019-02-19T12:08:14.813Z,5.43
2019-02-19T12:10:44.054Z,5.20
2019-02-19T12:13:13.265Z,5.50
2019-02-19T12:15:42.483Z,5.93
2019-02-19T12:18:11.782Z,5.87
2019-02-19T12:20:41.084Z,5.83
2019-02-19T12:23:10.653Z,5.40
2019-02-19T12:25:39.847Z,5.40
2019-02-19T12:28:09.103Z,5.63
2019-02-19T12:30:38.442Z,5.93
2019-02-19T12:33:07.740Z,6.40
2019-02-19T12:35:37.028Z,7.00
2019-02-19T12:38:06.339Z,6.13
2019-02-19T12:40:35.555Z,6.37
2019-02-19T12:43:04.850Z,6.40
2019-02-19T12:45:34.142Z,6.60
2019-02-19T12:48:03.421Z,6.40
2019-02-19T12:50:35.311Z,6.03
2019-02-19T12:53:04.498Z,7.53
2019-02-19T12:55:33.699Z,6.83
2019-02-19T12:58:02.890Z,7.63
2019-02-19T13:00:32.078Z,7.23
2019-02-19T13:03:02.086Z,6.70
2019-02-19T13:05:31.294Z,7.30
2019-02-19T13:08:00.513Z,7.33
2019-02-19T13:10:29.887Z,8.13
2019-02-19T13:12:59.122Z,7.07
2019-02-19T13:15:28.359Z,7.97
2019-02-19T13:17:57.562Z,7.50
2019-02-19T13:20:27.068Z,7.20
2019-02-19T13:22:56.653Z,7.20
2019-02-19T13:25:26.175Z,7.70
2019-02-19T13:27:55.411Z,7.87
2019-02-19T13:30:24.665Z,7.80
2019-02-19T13:32:53.947Z,8.10
2019-02-19T13:35:23.137Z,7.50
2019-02-19T13:37:52.351Z,7.83
2019-02-19T13:40:21.587Z,8.97
2019-02-19T13:42:50.922Z,8.23
2019-02-19T13:45:20.155Z,7.00
2019-02-19T13:47:49.448Z,8.53
2019-02-19T13:50:19.834Z,8.33
2019-02-19T13:52:54.273Z,8.03
2019-02-19T13:55:27.063Z,8.57
2019-02-19T13:57:57.465Z,8.43
2019-02-19T14:00:28.810Z,7.23
2019-02-19T14:02:58.652Z,8.50
2019-02-19T14:05:28.200Z,7.77
2019-02-19T14:07:57.594Z,7.60
2019-02-19T14:10:26.935Z,8.37
2019-02-19T14:12:56.282Z,8.70
2019-02-19T14:15:42.971Z,8.10
2019-02-19T14:18:14.926Z,7.47
2019-02-19T14:21:00.151Z,8.23
2019-02-19T14:23:46.923Z,7.90
2019-02-19T14:26:53.479Z,8.53
2019-02-19T14:29:40.733Z,6.70
2019-02-19T14:32:26.319Z,7.63
2019-02-19T14:35:08.090Z,8.53
2019-02-19T14:37:46.008Z,8.77
2019-02-19T14:40:33.086Z,7.60
2019-02-19T14:43:30.413Z,8.30
2019-02-19T14:46:27.844Z,7.87
2019-02-19T14:49:19.084Z,7.03
2019-02-19T14:52:10.476Z,7.93
2019-02-19T14:54:57.339Z,7.97
2019-02-19T14:57:36.108Z,8.23
2019-02-19T15:00:17.716Z,8.33
2019-02-19T15:03:09.131Z,8.37
2019-02-19T15:06:03.424Z,7.67
2019-02-19T15:09:03.561Z,7.80
2019-02-19T15:12:06.807Z,6.33
2019-02-19T15:15:04.626Z,8.63
2019-02-19T15:17:58.741Z,7.97
2019-02-19T15:21:05.196Z,8.77
2019-02-19T15:23:52.173Z,8.77
2019-02-19T15:26:36.153Z,6.93
2019-02-19T15:29:22.838Z,9.67
2019-02-19T15:31:59.883Z,9.57
2019-02-19T15:34:48.019Z,10.03
2019-02-19T15:37:34.890Z,9.70
2019-02-19T15:40:41.232Z,9.47
2019-02-19T15:43:47.705Z,9.77
2019-02-19T15:46:33.903Z,8.83
2019-02-19T15:49:22.367Z,9.17
2019-02-19T15:52:13.349Z,9.07
2019-02-19T15:54:59.964Z,8.00
2019-02-19T15:58:04.885Z,9.43
2019-02-19T16:00:53.313Z,9.07
2019-02-19T16:03:50.438Z,9.37
2019-02-19T16:06:53.983Z,9.90
2019-02-19T16:09:42.368Z,7.73
2019-02-19T16:12:36.552Z,9.17
2019-02-19T16:15:34.206Z,9.40
2019-02-19T16:18:20.767Z,10.30
2019-02-19T16:21:02.308Z,10.00
2019-02-19T16:23:46.683Z,9.60
2019-02-19T16:26:27.695Z,10.20
2019-02-19T16:29:21.921Z,10.23
2019-02-19T16:32:12.945Z,10.17
2019-02-19T16:34:49.643Z,10.37
2019-02-19T16:37:28.913Z,9.27
2019-02-19T16:40:17.169Z,10.40
2019-02-19T16:43:15.667Z,8.77
2019-02-19T16:46:09.706Z,7.70
2019-02-19T16:48:55.064Z,9.33
2019-02-19T16:51:47.813Z,7.27
2019-02-19T16:54:36.131Z,8.57
2019-02-19T16:57:21.574Z,8.60
2019-02-19T17:00:09.852Z,9.20
2019-02-19T17:02:56.706Z,6.83
2019-02-19T17:05:48.148Z,9.37
2019-02-19T17:08:35.187Z,8.27
2019-02-19T17:11:16.657Z,8.70
2019-02-19T17:14:04.843Z,8.13
2019-02-19T17:16:51.778Z,6.93
2019-02-19T17:19:40.140Z,7.63
2019-02-19T17:22:28.521Z,6.93
2019-02-19T17:25:15.208Z,6.57
2019-02-19T17:27:55.324Z,10.47
2019-02-19T17:30:46.863Z,10.93
2019-02-19T17:33:37.010Z,11.37
2019-02-19T17:36:21.507Z,10.23
2019-02-19T17:39:09.920Z,10.53
2019-02-19T17:41:57.496Z,12.37
2019-02-19T17:44:35.480Z,11.20
2019-02-19T17:47:22.139Z,13.30
2019-02-19T17:49:59.384Z,12.60
2019-02-19T17:52:58.551Z,12.50
2019-02-19T17:55:46.300Z,11.23
2019-02-19T17:58:27.867Z,11.50
2019-02-19T18:01:03.823Z,11.73
2019-02-19T18:03:48.255Z,12.33
2019-02-19T18:06:29.128Z,11.93
2019-02-19T18:09:08.173Z,11.37
2019-02-19T18:12:03.201Z,12.57
2019-02-19T18:15:03.648Z,11.03
2019-02-19T18:17:39.547Z,11.93
2019-02-19T18:20:08.831Z,11.07
2019-02-19T18:22:38.088Z,11.27
2019-02-19T18:25:08.704Z,11.07
2019-02-19T18:27:38.171Z,11.03
2019-02-19T18:30:07.615Z,9.83
2019-02-19T18:32:36.994Z,11.20
2019-02-19T18:35:06.537Z,10.73
2019-02-19T18:37:35.953Z,11.60
2019-02-19T18:40:05.455Z,13.53
2019-02-19T18:42:34.651Z,12.10
2019-02-19T18:45:04.063Z,12.00
2019-02-19T18:47:33.358Z,13.07
2019-02-19T18:50:03.270Z,12.10
2019-02-19T18:52:32.578Z,12.60
2019-02-19T18:55:01.902Z,9.27
2019-02-19T18:57:31.152Z,10.50
2019-02-19T19:00:00.589Z,13.67
2019-02-19T19:02:29.989Z,11.43
2019-02-19T19:04:59.358Z,9.03
2019-02-19T19:07:28.678Z,12.70
2019-02-19T19:09:58.069Z,12.90
2019-02-19T19:12:27.344Z,13.60
2019-02-19T19:14:56.702Z,12.90
2019-02-19T19:17:26.202Z,14.07
2019-02-19T19:19:55.677Z,15.40
2019-02-19T19:22:25.031Z,16.30
2019-02-19T19:24:54.979Z,15.63
2019-02-19T19:27:24.188Z,16.90
2019-02-19T19:29:55.139Z,20.60
2019-02-19T19:32:24.572Z,24.43
2019-02-19T19:34:53.871Z,23.27
2019-02-19T19:37:23.230Z,15.20
2019-02-19T19:39:52.598Z,22.87
2019-02-19T19:42:21.888Z,18.07
2019-02-19T19:44:51.118Z,21.13
2019-02-19T19:47:20.407Z,17.40
2019-02-19T19:49:49.605Z,13.03
2019-02-19T19:52:21.783Z,18.87
2019-02-19T19:54:51.065Z,18.90
2019-02-19T19:57:20.627Z,18.10
2019-02-19T19:59:49.963Z,11.60
2019-02-19T20:02:19.993Z,20.90
2019-02-19T20:04:49.506Z,12.50
2019-02-19T20:07:18.912Z,13.47
2019-02-19T20:09:48.232Z,13.67
2019-02-19T20:12:17.649Z,10.63
2019-02-19T20:14:46.912Z,15.73
2019-02-19T20:17:16.610Z,11.97
2019-02-19T20:19:46.125Z,13.40
2019-02-19T20:22:15.567Z,15.23
2019-02-19T20:24:44.960Z,15.13
2019-02-19T20:27:14.472Z,13.63
2019-02-19T20:29:43.830Z,16.20
2019-02-19T20:32:13.177Z,14.70
2019-02-19T20:34:42.597Z,12.17
2019-02-19T20:37:12.184Z,12.00
2019-02-19T20:39:45.994Z,14.17
2019-02-19T20:42:15.566Z,9.87
2019-02-19T20:44:44.894Z,12.60
2019-02-19T20:47:14.292Z,10.33
2019-02-19T20:49:43.580Z,11.37
2019-02-19T20:52:12.895Z,14.00
2019-02-19T20:54:42.226Z,10.67
2019-02-19T20:57:11.513Z,9.17
2019-02-19T20:59:41.053Z,8.17
2019-02-19T21:02:10.298Z,11.60
2019-02-19T21:04:39.633Z,13.40
2019-02-19T21:07:08.970Z,10.13
2019-02-19T21:09:43.690Z,8.80
2019-02-19T21:12:09.330Z,11.37
2019-02-19T21:14:38.748Z,13.97
2019-02-19T21:17:08.055Z,16.70
2019-02-19T21:19:37.315Z,14.97
2019-02-19T21:22:07.119Z,15.43
2019-02-19T21:24:36.447Z,10.47
2019-02-19T21:27:13.888Z,15.83
2019-02-19T21:29:43.455Z,14.77
2019-02-19T21:32:12.756Z,10.10
2019-02-19T21:34:42.093Z,9.97
2019-02-19T21:37:11.398Z,10.27
2019-02-19T21:39:40.799Z,9.70
2019-02-19T21:42:10.377Z,8.67
2019-02-19T21:44:39.818Z,9.43
2019-02-19T21:47:09.209Z,8.60
2019-02-19T21:49:40.315Z,7.60
2019-02-19T21:52:11.750Z,10.40
2019-02-19T21:54:41.065Z,10.50
2019-02-19T21:57:10.299Z,8.50
2019-02-19T21:59:39.480Z,8.47
2019-02-19T22:02:16.238Z,12.63
2019-02-19T22:04:39.916Z,13.00
2019-02-19T22:07:09.139Z,14.30
2019-02-19T22:09:38.356Z,14.50
2019-02-19T22:12:07.572Z,12.83
2019-02-19T22:14:36.810Z,13.07
2019-02-19T22:17:06.034Z,10.47
2019-02-19T22:19:35.243Z,13.10
2019-02-19T22:22:11.658Z,13.67
2019-02-19T22:24:40.871Z,10.83
2019-02-19T22:27:10.097Z,12.87
2019-02-19T22:29:40.029Z,11.17
2019-02-19T22:32:10.117Z,10.33
2019-02-19T22:34:43.623Z,10.00
2019-02-19T22:37:12.938Z,8.60
2019-02-19T22:39:52.168Z,6.77
2019-02-19T22:42:21.391Z,5.83
2019-02-19T22:44:50.585Z,5.87
2019-02-19T22:47:22.426Z,7.90
2019-02-19T22:49:51.701Z,10.70
2019-02-19T22:52:20.990Z,9.83
2019-02-19T22:54:58.837Z,9.40
2019-02-19T22:57:28.139Z,7.00
2019-02-19T22:59:57.369Z,5.77
2019-02-19T23:02:28.472Z,7.97
2019-02-19T23:04:57.765Z,8.43
2019-02-19T23:07:26.964Z,11.13
2019-02-19T23:09:56.268Z,11.73
2019-02-19T23:12:25.464Z,9.67
2019-02-19T23:14:54.675Z,12.23
2019-02-19T23:17:23.868Z,11.07
2019-02-19T23:19:53.127Z,9.90
2019-02-19T23:22:22.291Z,10.27
2019-02-19T23:24:51.585Z,10.27
2019-02-19T23:27:20.768Z,7.67
2019-02-19T23:29:49.960Z,8.47
2019-02-19T23:32:19.166Z,6.97
2019-02-19T23:34:50.323Z,6.13
2019-02-19T23:37:22.109Z,6.77
2019-02-19T23:39:51.592Z,5.80
2019-02-19T23:42:20.968Z,7.60
2019-02-19T23:44:50.144Z,8.53
2019-02-19T23:47:19.315Z,7.50
2019-02-19T23:49:48.609Z,7.77
2019-02-19T23:52:17.869Z,5.83
2019-02-19T23:54:47.028Z,8.60
2019-02-19T23:57:16.264Z,8.90
2019-02-19T23:59:45.551Z,6.30
